createdAt,value
2019-06-07T00:00:52.972Z,99.90
2019-06-07T00:03:29.446Z,99.90
2019-06-07T00:05:54.349Z,99.90
2019-06-07T00:08:28.592Z,99.90
2019-06-07T00:10:56.122Z,99.90
2019-06-07T00:13:25.916Z,99.90
2019-06-07T00:15:55.749Z,99.90
2019-06-07T00:18:26.229Z,99.90
2019-06-07T00:20:56.688Z,99.90
2019-06-07T00:23:26.775Z,99.90
2019-06-07T00:25:56.666Z,99.90
2019-06-07T00:28:26.628Z,99.90
2019-06-07T00:30:56.449Z,99.90
2019-06-07T00:33:27.232Z,99.90
2019-06-07T00:35:57.088Z,99.90
2019-06-07T00:38:26.927Z,99.90
2019-06-07T00:40:56.839Z,99.90
2019-06-07T00:43:28.604Z,99.90
2019-06-07T00:45:58.225Z,99.90
2019-06-07T00:48:39.100Z,99.90
2019-06-07T00:51:19.581Z,99.90
2019-06-07T00:54:03.289Z,99.90
2019-06-07T00:56:40.611Z,99.90
2019-06-07T00:59:21.885Z,99.90
2019-06-07T01:01:55.739Z,99.90
2019-06-07T01:04:35.923Z,99.90
2019-06-07T01:07:13.270Z,99.90
2019-06-07T01:09:52.685Z,99.90
2019-06-07T01:12:26.302Z,99.90
2019-06-07T01:14:56.547Z,99.90
2019-06-07T01:17:41.446Z,99.90
2019-06-07T01:20:14.149Z,99.90
2019-06-07T01:22:58.181Z,99.90
2019-06-07T01:25:39.148Z,99.90
2019-06-07T01:28:23.069Z,99.90
2019-06-07T01:30:57.621Z,99.90
2019-06-07T01:33:50.648Z,99.90
2019-06-07T01:36:25.245Z,99.90
2019-06-07T01:39:02.467Z,99.90
2019-06-07T01:41:38.544Z,99.90
2019-06-07T01:44:18.571Z,99.90
2019-06-07T01:46:54.439Z,99.90
2019-06-07T01:49:30.832Z,99.90
2019-06-07T01:52:07.665Z,99.90
2019-06-07T01:54:56.727Z,99.90
2019-06-07T01:57:38.015Z,99.90
2019-06-07T01:59:52.381Z,99.90
2019-06-07T02:02:22.743Z,99.90
2019-06-07T02:04:53.759Z,99.90
2019-06-07T02:07:25.805Z,99.90
2019-06-07T02:09:55.098Z,99.90
2019-06-07T02:12:34.046Z,99.90
2019-06-07T02:14:56.549Z,99.90
2019-06-07T02:17:28.432Z,99.90
2019-06-07T02:19:57.960Z,99.90
2019-06-07T02:22:32.115Z,99.90
2019-06-07T02:25:34.627Z,99.90
2019-06-07T02:27:32.790Z,99.90
2019-06-07T02:30:35.491Z,99.90
2019-06-07T02:32:36.794Z,99.90
2019-06-07T02:35:07.644Z,99.90
2019-06-07T02:37:37.763Z,99.90
2019-06-07T02:40:08.494Z,99.90
2019-06-07T02:42:42.617Z,99.90
2019-06-07T02:45:11.187Z,99.90
2019-06-07T02:47:41.971Z,99.90
2019-06-07T02:50:13.055Z,99.90
2019-06-07T02:52:43.032Z,99.90
2019-06-07T02:55:13.597Z,99.90
2019-06-07T02:57:43.497Z,99.90
2019-06-07T03:00:42.379Z,99.90
2019-06-07T03:02:47.921Z,99.90
2019-06-07T03:05:17.995Z,99.90
2019-06-07T03:07:48.817Z,99.90
2019-06-07T03:10:18.761Z,99.90
2019-06-07T03:12:51.328Z,99.90
2019-06-07T03:15:37.344Z,99.90
2019-06-07T03:18:16.102Z,99.90
2019-06-07T03:21:04.708Z,99.90
2019-06-07T03:23:20.910Z,99.90
2019-06-07T03:25:52.567Z,99.90
2019-06-07T03:28:23.128Z,99.90
2019-06-07T03:31:01.993Z,99.90
2019-06-07T03:33:24.553Z,99.90
2019-06-07T03:35:55.333Z,99.90
2019-06-07T03:38:25.163Z,99.90
2019-06-07T03:40:55.301Z,99.90
2019-06-07T03:43:25.235Z,99.90
2019-06-07T03:45:55.084Z,99.90
2019-06-07T03:48:25.039Z,99.90
2019-06-07T03:51:04.282Z,99.90
2019-06-07T03:53:30.471Z,99.90
2019-06-07T03:55:58.023Z,99.90
2019-06-07T03:58:34.697Z,99.90
2019-06-07T04:01:02.341Z,99.90
2019-06-07T04:03:45.540Z,99.90
2019-06-07T04:06:06.170Z,99.90
2019-06-07T04:08:41.410Z,99.90
2019-06-07T04:11:08.566Z,99.90
2019-06-07T04:13:42.951Z,99.90
2019-06-07T04:16:10.481Z,99.90
2019-06-07T04:18:42.253Z,99.90
2019-06-07T04:21:12.029Z,99.90
2019-06-07T04:23:45.763Z,99.90
2019-06-07T04:26:18.831Z,99.90
2019-06-07T04:29:31.480Z,99.90
2019-06-07T04:31:28.347Z,99.90
2019-06-07T04:34:01.574Z,99.90
2019-06-07T04:36:47.506Z,99.90
2019-06-07T04:39:09.353Z,99.90
2019-06-07T04:41:42.130Z,99.90
2019-06-07T04:44:13.221Z,99.90
2019-06-07T04:46:46.053Z,99.90
2019-06-07T04:49:29.892Z,99.90
2019-06-07T04:52:03.073Z,99.90
2019-06-07T04:54:35.027Z,99.90
2019-06-07T04:57:04.570Z,99.90
2019-06-07T05:00:10.512Z,99.90
2019-06-07T05:02:06.102Z,99.90
2019-06-07T05:04:37.119Z,99.90
2019-06-07T05:07:07.461Z,99.90
2019-06-07T05:09:39.412Z,99.90
2019-06-07T05:12:08.985Z,99.90
2019-06-07T05:14:39.875Z,99.90
2019-06-07T05:17:10.536Z,99.90
2019-06-07T05:19:44.120Z,99.90
2019-06-07T05:22:12.027Z,99.90
2019-06-07T05:24:43.888Z,99.90
2019-06-07T05:27:13.604Z,99.90
2019-06-07T05:29:44.374Z,99.90
2019-06-07T05:32:15.995Z,99.90
2019-06-07T05:34:47.344Z,99.90
2019-06-07T05:37:17.529Z,99.90
2019-06-07T05:39:48.506Z,99.90
2019-06-07T05:42:18.353Z,99.90
2019-06-07T05:44:49.173Z,99.90
2019-06-07T05:47:19.126Z,99.90
2019-06-07T05:49:48.959Z,99.90
2019-06-07T05:52:18.805Z,99.90
2019-06-07T05:54:48.690Z,99.90
2019-06-07T05:57:18.515Z,99.90
2019-06-07T05:59:48.468Z,99.90
2019-06-07T06:02:25.465Z,99.90
2019-06-07T06:04:49.956Z,99.90
2019-06-07T06:07:19.828Z,99.90
2019-06-07T06:09:49.697Z,99.90
2019-06-07T06:12:34.061Z,99.90
2019-06-07T06:14:51.051Z,99.90
2019-06-07T06:17:21.080Z,99.90
2019-06-07T06:19:53.475Z,99.90
2019-06-07T06:22:23.006Z,99.90
2019-06-07T06:52:35.436Z,99.90
2019-06-07T06:55:05.767Z,99.90
2019-06-07T06:57:35.623Z,99.90
2019-06-07T07:00:08.134Z,99.90
2019-06-07T07:03:26.864Z,99.90
2019-06-07T07:05:12.895Z,99.90
2019-06-07T07:07:45.451Z,99.90
2019-06-07T07:10:17.213Z,99.90
2019-06-07T07:12:47.849Z,99.90
2019-06-07T07:15:20.065Z,99.90
2019-06-07T07:18:03.559Z,99.90
2019-06-07T07:20:22.189Z,99.90
2019-06-07T07:22:56.429Z,99.90
2019-06-07T07:25:24.432Z,99.90
2019-06-07T07:27:55.400Z,99.90
2019-06-07T07:30:44.956Z,99.90
2019-06-07T07:33:15.916Z,99.90
2019-06-07T07:36:09.502Z,99.90
2019-06-07T07:38:18.366Z,99.90
2019-06-07T07:41:01.561Z,99.90
2019-06-07T07:43:20.450Z,99.90
2019-06-07T07:45:57.459Z,99.90
2019-06-07T07:48:22.999Z,99.90
2019-06-07T07:51:00.489Z,99.90
2019-06-07T07:53:45.418Z,99.90
2019-06-07T07:56:00.590Z,99.90
2019-06-07T07:58:30.941Z,99.90
2019-06-07T08:01:10.247Z,99.90
2019-06-07T08:03:33.080Z,99.90
2019-06-07T08:06:03.251Z,99.90
2019-06-07T08:08:33.519Z,99.90
2019-06-07T08:11:03.789Z,99.90
2019-06-07T08:13:34.002Z,99.90
2019-06-07T08:16:09.073Z,99.90
2019-06-07T08:18:36.010Z,99.90
2019-06-07T08:21:23.898Z,99.90
2019-06-07T08:23:37.761Z,99.90
2019-06-07T08:26:07.826Z,99.90
2019-06-07T08:28:37.784Z,99.90
2019-06-07T08:31:08.277Z,99.90
2019-06-07T08:33:38.389Z,99.90
2019-06-07T08:36:19.874Z,99.90
2019-06-07T08:38:47.926Z,99.90
2019-06-07T08:41:12.590Z,99.90
2019-06-07T08:43:42.759Z,99.90
2019-06-07T08:46:12.664Z,99.90
2019-06-07T08:48:42.610Z,99.90
2019-06-07T08:51:12.540Z,99.90
2019-06-07T08:53:42.393Z,99.90
2019-06-07T08:56:13.303Z,99.90
2019-06-07T08:58:43.176Z,99.90
2019-06-07T09:01:13.085Z,99.90
2019-06-07T09:03:42.954Z,99.90
2019-06-07T09:07:01.865Z,99.90
2019-06-07T09:08:44.948Z,99.90
2019-06-07T09:11:15.024Z,99.90
2019-06-07T09:13:44.853Z,99.90
2019-06-07T09:16:14.730Z,99.90
2019-06-07T09:18:45.210Z,99.90
2019-06-07T09:21:15.383Z,99.90
2019-06-07T09:23:45.287Z,99.90
2019-06-07T09:26:18.198Z,99.90
2019-06-07T09:28:47.144Z,99.90
2019-06-07T09:31:17.130Z,99.90
2019-06-07T09:33:47.146Z,99.90
2019-06-07T09:36:24.203Z,99.90
2019-06-07T09:38:54.124Z,99.90
2019-06-07T09:41:45.854Z,99.90
2019-06-07T09:44:10.842Z,99.90
2019-06-07T09:46:30.978Z,99.90
2019-06-07T09:49:14.022Z,99.90
2019-06-07T09:51:32.391Z,99.90
2019-06-07T09:54:06.939Z,99.90
2019-06-07T09:56:35.065Z,99.90
2019-06-07T09:59:09.118Z,99.90
2019-06-07T10:01:36.855Z,99.90
2019-06-07T10:04:16.393Z,99.90
2019-06-07T10:06:38.336Z,99.90
2019-06-07T10:11:40.712Z,99.90
2019-06-07T10:14:10.667Z,99.90
2019-06-07T10:16:46.599Z,99.90
2019-06-07T10:19:12.056Z,99.90
2019-06-07T10:21:41.962Z,99.90
2019-06-07T10:24:11.886Z,99.90
2019-06-07T10:26:41.880Z,99.90
2019-06-07T10:29:11.950Z,99.90
2019-06-07T10:31:41.833Z,99.90
2019-06-07T10:34:11.670Z,99.90
2019-06-07T10:36:41.711Z,99.90
2019-06-07T10:39:11.578Z,99.90
2019-06-07T10:41:43.315Z,99.90
2019-06-07T10:44:13.402Z,99.80
2019-06-07T10:46:43.318Z,99.50
2019-06-07T10:49:13.683Z,99.90
2019-06-07T10:51:43.628Z,97.10
2019-06-07T10:54:24.699Z,95.70
2019-06-07T10:56:45.241Z,92.60
2019-06-07T10:59:18.260Z,92.00
2019-06-07T11:01:48.253Z,97.60
2019-06-07T11:04:18.106Z,93.20
2019-06-07T11:06:48.651Z,92.50
2019-06-07T11:09:18.493Z,95.30
2019-06-07T11:11:48.358Z,93.00
2019-06-07T11:14:18.295Z,93.50
2019-06-07T11:16:48.193Z,97.00
2019-06-07T11:19:19.720Z,98.60
2019-06-07T11:21:49.773Z,99.90
2019-06-07T11:24:24.430Z,96.10
2019-06-07T11:26:51.206Z,91.00
2019-06-07T11:29:21.121Z,96.50
2019-06-07T11:31:50.972Z,97.10
2019-06-07T11:34:20.852Z,96.00
2019-06-07T11:36:51.203Z,96.60
2019-06-07T11:39:21.227Z,93.80
2019-06-07T11:41:51.072Z,92.30
2019-06-07T11:44:20.971Z,91.20
2019-06-07T11:46:50.827Z,90.50
2019-06-07T11:49:22.112Z,78.50
2019-06-07T11:51:52.337Z,77.60
2019-06-07T11:54:22.245Z,75.10
2019-06-07T11:56:53.117Z,73.40
2019-06-07T11:59:23.977Z,75.70
2019-06-07T12:01:53.812Z,74.50
2019-06-07T12:04:34.468Z,69.30
2019-06-07T12:06:56.960Z,75.40
2019-06-07T12:09:28.131Z,72.10
2019-06-07T12:11:58.191Z,71.90
2019-06-07T12:14:35.651Z,69.60
2019-06-07T12:17:09.008Z,68.80
2019-06-07T12:19:39.745Z,71.40
2019-06-07T12:22:09.827Z,69.50
2019-06-07T12:24:40.379Z,75.30
2019-06-07T12:27:10.357Z,75.10
2019-06-07T12:29:40.329Z,69.80
2019-06-07T12:32:11.225Z,69.50
2019-06-07T12:34:41.319Z,65.30
2019-06-07T12:37:11.734Z,61.00
2019-06-07T12:39:41.646Z,59.30
2019-06-07T12:42:12.404Z,59.00
2019-06-07T12:44:42.566Z,65.20
2019-06-07T12:47:13.145Z,65.30
2019-06-07T12:49:43.073Z,60.00
2019-06-07T12:52:15.700Z,60.40
2019-06-07T12:54:44.462Z,60.80
2019-06-07T12:57:16.132Z,57.80
2019-06-07T12:59:45.893Z,56.10
2019-06-07T13:02:16.364Z,56.00
2019-06-07T13:04:46.461Z,55.80
2019-06-07T13:07:17.883Z,54.60
2019-06-07T13:09:47.990Z,57.60
2019-06-07T13:12:17.898Z,56.70
2019-06-07T13:14:47.829Z,55.20
2019-06-07T13:17:18.063Z,53.50
2019-06-07T13:19:48.243Z,55.70
2019-06-07T13:22:18.371Z,56.80
2019-06-07T13:24:48.367Z,57.20
2019-06-07T13:27:18.405Z,58.80
2019-06-07T13:29:48.245Z,63.40
2019-06-07T13:32:19.254Z,62.30
2019-06-07T13:34:49.568Z,61.10
2019-06-07T13:37:19.710Z,62.50
2019-06-07T13:39:49.897Z,59.00
2019-06-07T13:42:20.452Z,64.10
2019-06-07T13:44:50.494Z,56.00
2019-06-07T13:47:21.096Z,57.00
2019-06-07T13:49:54.798Z,54.80
2019-06-07T13:52:22.708Z,53.90
2019-06-07T13:54:52.664Z,53.70
2019-06-07T13:57:24.235Z,51.30
2019-06-07T13:59:54.258Z,54.00
2019-06-07T14:02:26.142Z,53.30
2019-06-07T14:04:55.872Z,53.10
2019-06-07T14:07:26.902Z,55.30
2019-06-07T14:09:57.582Z,54.50
2019-06-07T14:12:27.842Z,55.30
2019-06-07T14:14:57.802Z,55.40
2019-06-07T14:17:28.333Z,56.30
2019-06-07T14:20:00.289Z,57.30
2019-06-07T14:22:31.199Z,59.00
2019-06-07T14:25:01.248Z,60.30
2019-06-07T14:27:31.917Z,61.30
2019-06-07T14:30:02.514Z,62.30
2019-06-07T14:32:32.734Z,64.20
2019-06-07T14:35:02.733Z,62.60
2019-06-07T14:37:33.171Z,58.90
2019-06-07T14:40:06.128Z,58.80
2019-06-07T14:42:36.079Z,62.30
2019-06-07T14:45:07.149Z,57.80
2019-06-07T14:47:37.166Z,61.50
2019-06-07T14:50:08.241Z,54.10
2019-06-07T14:52:38.196Z,52.80
2019-06-07T14:55:09.146Z,54.50
2019-06-07T14:57:40.031Z,50.60
2019-06-07T15:00:11.884Z,49.80
2019-06-07T15:02:42.565Z,50.70
2019-06-07T15:05:14.829Z,51.40
2019-06-07T15:07:46.718Z,52.20
2019-06-07T15:10:16.824Z,53.20
2019-06-07T15:12:46.874Z,52.40
2019-06-07T15:15:17.526Z,53.70
2019-06-07T15:17:47.391Z,52.70
2019-06-07T15:20:17.558Z,51.80
2019-06-07T15:22:47.439Z,51.10
2019-06-07T15:25:18.042Z,53.20
2019-06-07T15:27:47.964Z,51.50
2019-06-07T15:30:18.341Z,50.20
2019-06-07T15:32:48.921Z,50.20
2019-06-07T15:35:19.055Z,50.10
2019-06-07T15:37:49.024Z,49.90
2019-06-07T15:40:19.880Z,49.20
2019-06-07T15:42:53.111Z,50.70
2019-06-07T15:45:21.552Z,49.90
2019-06-07T15:47:51.808Z,50.80
2019-06-07T15:50:22.039Z,48.40
2019-06-07T15:52:52.163Z,48.40
2019-06-07T15:55:22.247Z,49.20
2019-06-07T15:57:52.214Z,51.10
2019-06-07T16:00:22.377Z,50.80
2019-06-07T16:02:52.216Z,51.00
2019-06-07T16:05:22.321Z,51.00
2019-06-07T16:07:52.451Z,54.00
2019-06-07T16:10:22.636Z,54.60
2019-06-07T16:13:00.186Z,54.10
2019-06-07T16:15:24.268Z,56.40
2019-06-07T16:17:54.130Z,56.10
2019-06-07T16:20:24.360Z,58.50
2019-06-07T16:22:54.237Z,59.00
2019-06-07T16:25:24.297Z,60.70
2019-06-07T16:27:54.229Z,60.70
2019-06-07T16:30:24.444Z,60.60
2019-06-07T16:32:54.962Z,61.00
2019-06-07T16:35:25.127Z,62.50
2019-06-07T16:37:55.172Z,62.50
2019-06-07T16:40:25.153Z,62.20
2019-06-07T16:42:57.368Z,63.40
2019-06-07T16:45:28.210Z,63.90
2019-06-07T16:47:58.063Z,64.00
2019-06-07T16:50:27.992Z,67.60
2019-06-07T16:52:57.888Z,69.10
2019-06-07T16:55:27.732Z,69.90
2019-06-07T16:57:57.677Z,68.60
2019-06-07T17:00:27.971Z,68.00
2019-06-07T17:02:57.840Z,67.10
2019-06-07T17:05:27.773Z,67.30
2019-06-07T17:07:57.638Z,67.60
2019-06-07T17:10:27.501Z,68.20
2019-06-07T17:12:58.415Z,69.90
2019-06-07T17:15:28.501Z,70.30
2019-06-07T17:17:58.403Z,70.60
2019-06-07T17:20:28.790Z,70.20
2019-06-07T17:22:58.714Z,70.00
2019-06-07T17:25:28.590Z,69.70
2019-06-07T17:27:58.538Z,71.40
2019-06-07T17:30:28.521Z,68.70
2019-06-07T17:32:59.628Z,69.70
2019-06-07T17:35:30.697Z,70.80
2019-06-07T17:38:00.618Z,71.70
2019-06-07T17:40:30.748Z,71.40
2019-06-07T17:43:01.030Z,73.20
2019-06-07T17:45:30.879Z,73.00
2019-06-07T17:48:00.819Z,74.10
2019-06-07T17:50:30.740Z,74.00
2019-06-07T17:53:00.874Z,75.80
2019-06-07T17:55:30.709Z,76.90
2019-06-07T17:58:00.644Z,78.70
2019-06-07T18:00:56.886Z,83.20
2019-06-07T18:03:28.409Z,84.70
2019-06-07T18:06:02.660Z,85.20
2019-06-07T18:08:38.089Z,89.10
2019-06-07T18:11:07.957Z,88.90
2019-06-07T18:13:37.834Z,89.80
2019-06-07T18:16:08.822Z,91.60
2019-06-07T18:18:39.067Z,92.30
2019-06-07T18:21:10.439Z,90.70
2019-06-07T18:23:40.545Z,91.90
2019-06-07T18:26:10.404Z,93.80
2019-06-07T18:28:41.776Z,94.90
2019-06-07T18:31:12.187Z,95.10
2019-06-07T18:33:42.063Z,95.60
2019-06-07T18:36:14.983Z,96.70
2019-06-07T18:38:46.923Z,97.90
2019-06-07T18:41:16.952Z,97.80
2019-06-07T18:43:47.026Z,99.90
2019-06-07T18:46:18.937Z,99.90
2019-06-07T18:48:55.320Z,99.90
2019-06-07T18:51:26.212Z,99.90
2019-06-07T18:53:56.415Z,99.90
2019-06-07T18:56:26.749Z,99.90
2019-06-07T18:58:56.838Z,99.90
2019-06-07T19:01:32.970Z,99.90
2019-06-07T19:04:03.023Z,99.90
2019-06-07T19:06:33.294Z,99.90
2019-06-07T19:09:03.338Z,99.90
2019-06-07T19:11:33.554Z,99.90
2019-06-07T19:14:04.943Z,99.90
2019-06-07T19:16:36.349Z,99.90
2019-06-07T19:19:07.610Z,99.90
2019-06-07T19:21:37.431Z,99.90
2019-06-07T19:24:07.393Z,99.90
2019-06-07T19:26:37.298Z,99.90
2019-06-07T19:29:11.181Z,99.90
2019-06-07T19:31:41.217Z,99.90
2019-06-07T19:34:11.183Z,99.90
2019-06-07T19:36:48.780Z,99.90
2019-06-07T19:39:12.812Z,99.90
2019-06-07T19:41:42.645Z,99.90
2019-06-07T19:44:12.513Z,99.90
2019-06-07T19:46:42.433Z,99.90
2019-06-07T19:49:12.374Z,99.90
2019-06-07T19:51:42.241Z,99.90
2019-06-07T19:54:12.155Z,99.90
2019-06-07T19:56:42.045Z,99.90
2019-06-07T19:59:11.904Z,99.90
2019-06-07T20:01:41.831Z,99.90
2019-06-07T20:04:11.752Z,99.90
2019-06-07T20:06:41.622Z,99.90
2019-06-07T20:09:11.891Z,99.90
2019-06-07T20:11:41.775Z,99.90
2019-06-07T20:14:11.726Z,99.90
2019-06-07T20:16:41.677Z,99.90
2019-06-07T20:19:11.560Z,99.90
2019-06-07T20:21:42.456Z,99.90
2019-06-07T20:24:26.413Z,99.90
2019-06-07T20:26:43.855Z,99.90
2019-06-07T20:29:25.322Z,99.90
2019-06-07T20:31:45.264Z,99.90
2019-06-07T20:34:15.138Z,99.90
2019-06-07T20:36:45.965Z,99.90
2019-06-07T20:39:16.141Z,99.90
2019-06-07T20:41:46.106Z,99.90
2019-06-07T20:44:15.954Z,99.90
2019-06-07T20:46:45.860Z,99.90
2019-06-07T20:49:15.837Z,99.90
2019-06-07T20:51:45.695Z,99.90
2019-06-07T20:54:15.934Z,99.90
2019-06-07T20:56:46.315Z,99.90
2019-06-07T20:59:16.171Z,99.90
2019-06-07T21:01:46.118Z,99.90
2019-06-07T21:04:15.965Z,99.90
2019-06-07T21:06:45.825Z,99.90
2019-06-07T21:09:18.127Z,99.90
2019-06-07T21:11:49.566Z,99.90
2019-06-07T21:14:19.382Z,99.90
2019-06-07T21:16:49.374Z,99.90
2019-06-07T21:19:19.206Z,99.90
2019-06-07T21:21:49.113Z,99.90
2019-06-07T21:24:22.165Z,99.90
2019-06-07T21:26:53.308Z,99.90
2019-06-07T21:29:23.490Z,99.90
2019-06-07T21:31:55.343Z,99.90
2019-06-07T21:34:28.243Z,99.90
2019-06-07T21:36:58.148Z,99.90
2019-06-07T21:39:30.695Z,99.90
2019-06-07T21:42:02.141Z,99.90
2019-06-07T21:44:32.241Z,99.90
2019-06-07T21:47:02.617Z,99.90
2019-06-07T21:49:32.488Z,99.90
2019-06-07T21:52:02.552Z,99.90
2019-06-07T21:54:32.468Z,99.90
2019-06-07T21:57:02.820Z,99.90
2019-06-07T21:59:32.778Z,99.90
2019-06-07T22:02:03.227Z,99.90
2019-06-07T22:04:33.235Z,99.90
2019-06-07T22:07:03.343Z,99.90
2019-06-07T22:09:33.383Z,99.90
2019-06-07T22:12:04.439Z,99.90
2019-06-07T22:14:34.495Z,99.90
2019-06-07T22:17:04.416Z,99.90
2019-06-07T22:19:34.430Z,99.90
2019-06-07T22:22:05.209Z,99.90
2019-06-07T22:24:35.680Z,99.90
2019-06-07T22:27:07.101Z,99.90
2019-06-07T22:29:37.140Z,99.90
2019-06-07T22:32:07.051Z,99.90
2019-06-07T22:34:36.886Z,99.90
2019-06-07T22:37:07.158Z,99.90
2019-06-07T22:39:37.193Z,99.90
2019-06-07T22:42:07.172Z,99.90
2019-06-07T22:44:39.953Z,99.90
2019-06-07T22:47:09.895Z,99.90
2019-06-07T22:49:39.877Z,99.90
2019-06-07T22:52:12.585Z,99.90
2019-06-07T22:54:41.283Z,99.90
2019-06-07T22:57:18.374Z,99.90
2019-06-07T22:59:48.581Z,99.90
2019-06-07T23:02:18.825Z,99.90
2019-06-07T23:04:48.930Z,99.90
2019-06-07T23:07:19.234Z,99.90
2019-06-07T23:09:49.189Z,99.90
2019-06-07T23:12:19.594Z,99.90
2019-06-07T23:14:49.614Z,99.90
2019-06-07T23:17:20.721Z,99.90
2019-06-07T23:19:50.739Z,99.90
2019-06-07T23:22:20.649Z,99.90
2019-06-07T23:24:50.495Z,99.90
2019-06-07T23:27:20.732Z,99.90
2019-06-07T23:29:51.885Z,99.90
2019-06-07T23:32:21.920Z,99.90
2019-06-07T23:34:51.809Z,99.90
2019-06-07T23:37:21.854Z,99.90
2019-06-07T23:39:51.710Z,99.90
2019-06-07T23:42:21.836Z,99.90
2019-06-07T23:44:52.299Z,99.90
2019-06-07T23:47:22.373Z,99.90
2019-06-07T23:49:52.545Z,99.90
2019-06-07T23:52:22.489Z,99.90
2019-06-07T23:54:52.340Z,99.90
2019-06-07T23:57:22.689Z,99.90
2019-06-07T23:59:52.760Z,99.90
